PWSweather.com
Personal Weather Stations
Station Observations
WX62612
Sturbridge, MA

Sturbridge, MA

Lat: 42.131, Lon: -72.093

Elevation: 715

Station Type:

Latest ConditionsUpdated 7:06:00 PM EDT Sunday, Oct 20, 2019
Currently Today's Max Today's Min Today's Average
Temperature 51.3°F10.7°C 56.7°F13.7°C 32.4°F0.2°C 43.5°F6.4°C
Dew Point 50.2°F10.1°C 50.2°F10.1°C 30.9°F-0.6°C 39.0°F3.9°C
Winds Calm Calm 2.2 mph -3.5 kmh - - 0.2 mph 0.3 kmh
Wind Gusts -- 4.0 mph6.4 kmh - -
Humidity 96% 99% 60% 85%
Pressure 30.04 in1017.3 mb 30.11 in1019.6 mb 30.02 in1016.6 mb -
Precipitation - 0.04 in1.0 mm - -
Hour Temp Dew Point Humidity Winds Wind Gusts Pressure Precip Precip Rate Daily Precip Total
07:06 PM 51.3°F10.7°C 50.2°F10.1°C 96% Calm Calm -- 30.04 in1017.3 mb 0.04 in1.0 mm 0.01 in0.3 mm 0.04 in1.0 mm
07:00 PM 51.3°F10.7°C 49.6°F9.8°C 94% Calm Calm -- 30.04 in1017.3 mb 0.04 in1.0 mm 0.00 in0.0 mm 0.04 in1.0 mm
06:56 PM 51.3°F10.7°C 49.6°F9.8°C 94% Calm Calm -- 30.04 in1017.3 mb 0.04 in1.0 mm 0.05 in1.3 mm 0.04 in1.0 mm
06:50 PM 51.4°F10.8°C 49.5°F9.7°C 93% Calm Calm -- 30.04 in1017.3 mb 0.03 in0.8 mm 0.06 in1.5 mm 0.03 in0.8 mm
06:46 PM 51.4°F10.8°C 49.5°F9.7°C 93% Calm Calm -- 30.04 in1017.3 mb 0.03 in0.8 mm 0.09 in2.3 mm 0.03 in0.8 mm
06:40 PM 51.6°F10.9°C 49.5°F9.7°C 92% Calm Calm -- 30.04 in1017.3 mb 0.02 in0.5 mm 0.03 in0.8 mm 0.02 in0.5 mm
06:36 PM 51.8°F11.0°C 49.5°F9.7°C 92% Calm Calm -- 30.04 in1017.3 mb 0.02 in0.5 mm 0.02 in0.5 mm 0.02 in0.5 mm
06:30 PM 52.0°F11.1°C 49.1°F9.5°C 90% Calm Calm -- 30.04 in1017.3 mb 0.01 in0.3 mm 0.02 in0.5 mm 0.01 in0.3 mm
06:26 PM 52.0°F11.1°C 48.9°F9.4°C 89% 0.2 mph W0.3 kmh W 1.3 mph2.1 kmh 30.04 in1017.3 mb 0.01 in0.3 mm 0.02 in0.5 mm 0.01 in0.3 mm
06:20 PM 52.2°F11.2°C 49.1°F9.5°C 89% Calm Calm -- 30.03 in1016.9 mb 0.01 in0.3 mm 0.03 in0.8 mm 0.01 in0.3 mm
06:16 PM 52.3°F11.3°C 49.3°F9.6°C 89% Calm Calm -- 30.03 in1016.9 mb 0.01 in0.3 mm 0.04 in1.0 mm 0.01 in0.3 mm
06:10 PM 52.5°F11.4°C 49.1°F9.5°C 88% Calm Calm 1.1 mph1.8 kmh 30.03 in1016.9 mb 0.00 in0.0 mm 0.00 in0.0 mm 0.01 in0.3 mm
06:06 PM 52.3°F11.3°C 48.6°F9.2°C 87% Calm Calm -- 30.03 in1016.9 mb 0.00 in0.0 mm 0.01 in0.3 mm 0.00 in0.0 mm
06:00 PM 52.7°F11.5°C 48.4°F9.1°C 85% Calm Calm 0.9 mph1.4 kmh 30.03 in1016.9 mb 0.00 in0.0 mm 0.00 in0.0 mm 0.00 in0.0 mm
05:56 PM 52.9°F11.6°C 48.2°F9.0°C 84% 0.4 mph NW0.6 kmh NW 1.1 mph1.8 kmh 30.03 in1016.9 mb 0.00 in0.0 mm 0.00 in0.0 mm 0.00 in0.0 mm
05:50 PM 53.1°F11.7°C 48.4°F9.1°C 84% Calm Calm -- 30.03 in1016.9 mb 0.00 in0.0 mm 0.02 in0.5 mm 0.00 in0.0 mm
05:46 PM 53.2°F11.8°C 48.2°F9.0°C 83% Calm Calm 1.1 mph1.8 kmh 30.03 in1016.9 mb 0.00 in0.0 mm 0.00 in0.0 mm 0.00 in0.0 mm
05:40 PM 53.6°F12.0°C 48.2°F9.0°C 82% Calm Calm -- 30.03 in1016.9 mb 0.00 in0.0 mm 0.00 in0.0 mm 0.00 in0.0 mm
05:36 PM 53.6°F12.0°C 47.7°F8.7°C 80% Calm Calm -- 30.03 in1016.9 mb 0.00 in0.0 mm 0.00 in0.0 mm 0.00 in0.0 mm
05:30 PM 54.0°F12.2°C 47.3°F8.5°C 78% Calm Calm -- 30.03 in1016.9 mb 0.00 in0.0 mm 0.00 in0.0 mm 0.00 in0.0 mm
05:26 PM 54.1°F12.3°C 47.5°F8.6°C 78% Calm Calm -- 30.02 in1016.6 mb 0.00 in0.0 mm 0.00 in0.0 mm 0.00 in0.0 mm
05:20 PM 54.3°F12.4°C 47.7°F8.7°C 78% Calm Calm -- 30.02 in1016.6 mb 0.00 in0.0 mm 0.00 in0.0 mm 0.00 in0.0 mm
05:16 PM 54.3°F12.4°C 46.6°F8.1°C 75% Calm Calm -- 30.03 in1016.9 mb 0.00 in0.0 mm 0.00 in0.0 mm 0.00 in0.0 mm
05:10 PM 54.5°F12.5°C 46.8°F8.2°C 75% Calm Calm -- 30.03 in1016.9 mb 0.00 in0.0 mm 0.02 in0.5 mm 0.00 in0.0 mm
05:06 PM 54.7°F12.6°C 46.9°F8.3°C 75% Calm Calm -- 30.03 in1016.9 mb 0.00 in0.0 mm 0.00 in0.0 mm 0.00 in0.0 mm
05:00 PM 55.0°F12.8°C 46.9°F8.3°C 74% Calm Calm -- 30.03 in1016.9 mb 0.00 in0.0 mm 0.00 in0.0 mm 0.00 in0.0 mm
04:56 PM 55.0°F12.8°C 46.6°F8.1°C 73% Calm Calm -- 30.04 in1017.3 mb 0.00 in0.0 mm 0.00 in0.0 mm 0.00 in0.0 mm
04:50 PM 55.2°F12.9°C 46.0°F7.8°C 71% Calm Calm 0.7 mph1.1 kmh 30.04 in1017.3 mb 0.00 in0.0 mm 0.00 in0.0 mm 0.00 in0.0 mm
04:46 PM 55.4°F13.0°C 46.2°F7.9°C 71% Calm Calm -- 30.04 in1017.3 mb 0.00 in0.0 mm 0.00 in0.0 mm 0.00 in0.0 mm
04:40 PM 55.6°F13.1°C 45.5°F7.5°C 69% Calm Calm -- 30.04 in1017.3 mb 0.00 in0.0 mm 0.00 in0.0 mm 0.00 in0.0 mm
04:36 PM 55.6°F13.1°C 45.5°F7.5°C 69% 0.2 mph NW0.3 kmh NW 1.1 mph1.8 kmh 30.04 in1017.3 mb 0.00 in0.0 mm 0.00 in0.0 mm 0.00 in0.0 mm
04:30 PM 55.8°F13.2°C 45.7°F7.6°C 69% 0.2 mph S0.3 kmh S 1.6 mph2.6 kmh 30.04 in1017.3 mb 0.00 in0.0 mm 0.00 in0.0 mm 0.00 in0.0 mm
04:26 PM 55.8°F13.2°C 46.0°F7.8°C 70% Calm Calm -- 30.04 in1017.3 mb 0.00 in0.0 mm 0.00 in0.0 mm 0.00 in0.0 mm
04:20 PM 55.9°F13.3°C 45.9°F7.7°C 69% Calm Calm -- 30.04 in1017.3 mb 0.00 in0.0 mm 0.00 in0.0 mm 0.00 in0.0 mm
04:16 PM 56.1°F13.4°C 45.7°F7.6°C 68% 0.4 mph SW0.6 kmh SW 1.3 mph2.1 kmh 30.04 in1017.3 mb 0.00 in0.0 mm 0.00 in0.0 mm 0.00 in0.0 mm
04:10 PM 55.9°F13.3°C 45.5°F7.5°C 68% Calm Calm -- 30.04 in1017.3 mb 0.00 in0.0 mm 0.00 in0.0 mm 0.00 in0.0 mm
04:06 PM 56.3°F13.5°C 45.1°F7.3°C 66% 0.4 mph WNW0.6 kmh WNW 1.8 mph2.9 kmh 30.04 in1017.3 mb 0.00 in0.0 mm 0.00 in0.0 mm 0.00 in0.0 mm
04:00 PM 56.1°F13.4°C 44.6°F7.0°C 65% Calm Calm -- 30.04 in1017.3 mb 0.00 in0.0 mm 0.00 in0.0 mm 0.00 in0.0 mm
03:56 PM 56.1°F13.4°C 44.6°F7.0°C 65% 1.3 mph S2.1 kmh S 3.1 mph5.0 kmh 30.04 in1017.3 mb 0.00 in0.0 mm 0.00 in0.0 mm 0.00 in0.0 mm
03:50 PM 56.1°F13.4°C 45.0°F7.2°C 66% 0.2 mph WNW0.3 kmh WNW 1.3 mph2.1 kmh 30.05 in1017.6 mb 0.00 in0.0 mm 0.00 in0.0 mm 0.00 in0.0 mm
03:46 PM 56.3°F13.5°C 44.6°F7.0°C 65% 0.9 mph S1.4 kmh S 2.5 mph4.0 kmh 30.05 in1017.6 mb 0.00 in0.0 mm 0.00 in0.0 mm 0.00 in0.0 mm
03:40 PM 56.3°F13.5°C 44.6°F7.0°C 65% Calm Calm -- 30.05 in1017.6 mb 0.00 in0.0 mm 0.00 in0.0 mm 0.00 in0.0 mm
03:36 PM 56.3°F13.5°C 44.6°F7.0°C 65% Calm Calm -- 30.05 in1017.6 mb 0.00 in0.0 mm 0.00 in0.0 mm 0.00 in0.0 mm
03:30 PM 56.1°F13.4°C 44.6°F7.0°C 65% 0.9 mph WNW1.4 kmh WNW 1.6 mph2.6 kmh 30.05 in1017.6 mb 0.00 in0.0 mm 0.00 in0.0 mm 0.00 in0.0 mm
03:26 PM 56.3°F13.5°C 45.1°F7.3°C 66% 0.9 mph WSW1.4 kmh WSW 1.8 mph2.9 kmh 30.05 in1017.6 mb 0.00 in0.0 mm 0.00 in0.0 mm 0.00 in0.0 mm
03:20 PM 56.3°F13.5°C 44.2°F6.8°C 64% Calm Calm -- 30.04 in1017.3 mb 0.00 in0.0 mm 0.00 in0.0 mm 0.00 in0.0 mm
03:16 PM 56.3°F13.5°C 45.9°F7.7°C 68% 0.9 mph WNW1.4 kmh WNW 2.0 mph3.2 kmh 30.05 in1017.6 mb 0.00 in0.0 mm 0.00 in0.0 mm 0.00 in0.0 mm
03:10 PM 56.5°F13.6°C 44.8°F7.1°C 65% 0.4 mph SSE0.6 kmh SSE 1.8 mph2.9 kmh 30.05 in1017.6 mb 0.00 in0.0 mm 0.00 in0.0 mm 0.00 in0.0 mm
03:06 PM 56.5°F13.6°C 44.4°F6.9°C 64% Calm Calm -- 30.04 in1017.3 mb 0.00 in0.0 mm 0.00 in0.0 mm 0.00 in0.0 mm
03:00 PM 56.5°F13.6°C 44.8°F7.1°C 65% 0.9 mph WSW1.4 kmh WSW 2.0 mph3.2 kmh 30.04 in1017.3 mb 0.00 in0.0 mm 0.00 in0.0 mm 0.00 in0.0 mm
02:56 PM 56.7°F13.7°C 43.0°F6.1°C 60% 0.4 mph SW0.6 kmh SW 1.1 mph1.8 kmh 30.04 in1017.3 mb 0.00 in0.0 mm 0.00 in0.0 mm 0.00 in0.0 mm
02:50 PM 56.7°F13.7°C 43.3°F6.3°C 61% 1.3 mph WNW2.1 kmh WNW 2.2 mph3.5 kmh 30.05 in1017.6 mb 0.00 in0.0 mm 0.00 in0.0 mm 0.00 in0.0 mm
02:46 PM 56.7°F13.7°C 44.6°F7.0°C 64% 0.2 mph SW0.3 kmh SW 1.1 mph1.8 kmh 30.05 in1017.6 mb 0.00 in0.0 mm 0.00 in0.0 mm 0.00 in0.0 mm
02:40 PM 56.7°F13.7°C 43.0°F6.1°C 60% Calm Calm -- 30.04 in1017.3 mb 0.00 in0.0 mm 0.00 in0.0 mm 0.00 in0.0 mm
02:36 PM 56.5°F13.6°C 42.8°F6.0°C 60% 1.3 mph NW2.1 kmh NW 2.7 mph4.3 kmh 30.04 in1017.3 mb 0.00 in0.0 mm 0.00 in0.0 mm 0.00 in0.0 mm
02:30 PM 56.5°F13.6°C 42.8°F6.0°C 60% 0.2 mph ENE0.3 kmh ENE 1.6 mph2.6 kmh 30.05 in1017.6 mb 0.00 in0.0 mm 0.00 in0.0 mm 0.00 in0.0 mm
02:26 PM 56.3°F13.5°C 43.0°F6.1°C 61% Calm Calm -- 30.05 in1017.6 mb 0.00 in0.0 mm 0.00 in0.0 mm 0.00 in0.0 mm
02:20 PM 56.3°F13.5°C 43.9°F6.6°C 63% 1.1 mph W1.8 kmh W 2.0 mph3.2 kmh 30.05 in1017.6 mb 0.00 in0.0 mm 0.00 in0.0 mm 0.00 in0.0 mm
02:16 PM 56.3°F13.5°C 44.2°F6.8°C 64% Calm Calm -- 30.04 in1017.3 mb 0.00 in0.0 mm 0.00 in0.0 mm 0.00 in0.0 mm
02:10 PM 56.3°F13.5°C 44.2°F6.8°C 64% 1.3 mph S2.1 kmh S 4.0 mph6.4 kmh 30.05 in1017.6 mb 0.00 in0.0 mm 0.00 in0.0 mm 0.00 in0.0 mm
02:06 PM 56.1°F13.4°C 43.7°F6.5°C 63% 1.3 mph SSW2.1 kmh SSW 2.9 mph4.7 kmh 30.05 in1017.6 mb 0.00 in0.0 mm 0.00 in0.0 mm 0.00 in0.0 mm
02:00 PM 55.9°F13.3°C 43.5°F6.4°C 63% 0.2 mph ESE0.3 kmh ESE 1.8 mph2.9 kmh 30.05 in1017.6 mb 0.00 in0.0 mm 0.00 in0.0 mm 0.00 in0.0 mm
01:56 PM 55.9°F13.3°C 43.9°F6.6°C 64% Calm Calm -- 30.05 in1017.6 mb 0.00 in0.0 mm 0.00 in0.0 mm 0.00 in0.0 mm
01:50 PM 55.8°F13.2°C 43.7°F6.5°C 64% 0.7 mph WSW1.1 kmh WSW 3.1 mph5.0 kmh 30.06 in1017.9 mb 0.00 in0.0 mm 0.00 in0.0 mm 0.00 in0.0 mm
01:46 PM 55.8°F13.2°C 43.7°F6.5°C 64% 0.2 mph SSW0.3 kmh SSW 1.3 mph2.1 kmh 30.06 in1017.9 mb 0.00 in0.0 mm 0.00 in0.0 mm 0.00 in0.0 mm
01:40 PM 55.8°F13.2°C 43.7°F6.5°C 64% 0.2 mph SSW0.3 kmh SSW 1.1 mph1.8 kmh 30.05 in1017.6 mb 0.00 in0.0 mm 0.00 in0.0 mm 0.00 in0.0 mm
01:36 PM 55.6°F13.1°C 43.5°F6.4°C 64% 1.6 mph E2.6 kmh E 2.7 mph4.3 kmh 30.05 in1017.6 mb 0.00 in0.0 mm 0.00 in0.0 mm 0.00 in0.0 mm
01:30 PM 55.4°F13.0°C 43.0°F6.1°C 63% Calm Calm 1.8 mph2.9 kmh 30.05 in1017.6 mb 0.00 in0.0 mm 0.00 in0.0 mm 0.00 in0.0 mm
01:26 PM 55.4°F13.0°C 44.2°F6.8°C 66% Calm Calm 0.7 mph1.1 kmh 30.05 in1017.6 mb 0.00 in0.0 mm 0.00 in0.0 mm 0.00 in0.0 mm
01:20 PM 55.2°F12.9°C 43.7°F6.5°C 65% 0.2 mph S0.3 kmh S 1.8 mph2.9 kmh 30.06 in1017.9 mb 0.00 in0.0 mm 0.00 in0.0 mm 0.00 in0.0 mm
01:16 PM 55.0°F12.8°C 43.9°F6.6°C 66% Calm Calm -- 30.06 in1017.9 mb 0.00 in0.0 mm 0.00 in0.0 mm 0.00 in0.0 mm
01:10 PM 55.2°F12.9°C 44.8°F7.1°C 68% 0.9 mph W1.4 kmh W 2.2 mph3.5 kmh 30.06 in1017.9 mb 0.00 in0.0 mm 0.00 in0.0 mm 0.00 in0.0 mm
01:06 PM 55.0°F12.8°C 43.9°F6.6°C 66% 0.9 mph W1.4 kmh W 3.1 mph5.0 kmh 30.06 in1017.9 mb 0.00 in0.0 mm 0.00 in0.0 mm 0.00 in0.0 mm
01:00 PM 54.5°F12.5°C 44.2°F6.8°C 68% 0.2 mph NW0.3 kmh NW 1.8 mph2.9 kmh 30.06 in1017.9 mb 0.00 in0.0 mm 0.00 in0.0 mm 0.00 in0.0 mm
12:55 PM 54.3°F12.4°C 44.4°F6.9°C 69% Calm Calm -- 30.06 in1017.9 mb 0.00 in0.0 mm 0.00 in0.0 mm 0.00 in0.0 mm
12:51 PM 54.3°F12.4°C 43.2°F6.2°C 66% 0.4 mph SE0.6 kmh SE 1.8 mph2.9 kmh 30.06 in1017.9 mb 0.00 in0.0 mm 0.00 in0.0 mm 0.00 in0.0 mm
12:45 PM 54.0°F12.2°C 43.7°F6.5°C 68% 0.4 mph NW0.6 kmh NW 1.8 mph2.9 kmh 30.06 in1017.9 mb 0.00 in0.0 mm 0.00 in0.0 mm 0.00 in0.0 mm
12:41 PM 53.6°F12.0°C 44.1°F6.7°C 70% 0.4 mph NW0.6 kmh NW 3.4 mph5.5 kmh 30.06 in1017.9 mb 0.00 in0.0 mm 0.00 in0.0 mm 0.00 in0.0 mm
12:35 PM 53.2°F11.8°C 43.3°F6.3°C 69% 1.1 mph W1.8 kmh W 2.7 mph4.3 kmh 30.06 in1017.9 mb 0.00 in0.0 mm 0.00 in0.0 mm 0.00 in0.0 mm
12:31 PM 53.1°F11.7°C 43.5°F6.4°C 70% 1.3 mph SW2.1 kmh SW 2.5 mph4.0 kmh 30.06 in1017.9 mb 0.00 in0.0 mm 0.00 in0.0 mm 0.00 in0.0 mm
12:25 PM 52.9°F11.6°C 44.4°F6.9°C 73% Calm Calm -- 30.06 in1017.9 mb 0.00 in0.0 mm 0.00 in0.0 mm 0.00 in0.0 mm
12:21 PM 52.5°F11.4°C 43.3°F6.3°C 71% 1.8 mph NE2.9 kmh NE 2.9 mph4.7 kmh 30.07 in1018.3 mb 0.00 in0.0 mm 0.00 in0.0 mm 0.00 in0.0 mm
12:15 PM 52.2°F11.2°C 44.1°F6.7°C 74% Calm Calm -- 30.07 in1018.3 mb 0.00 in0.0 mm 0.00 in0.0 mm 0.00 in0.0 mm
12:11 PM 52.0°F11.1°C 43.9°F6.6°C 74% Calm Calm -- 30.07 in1018.3 mb 0.00 in0.0 mm 0.00 in0.0 mm 0.00 in0.0 mm
12:05 PM 51.1°F10.6°C 44.1°F6.7°C 77% Calm Calm -- 30.07 in1018.3 mb 0.00 in0.0 mm 0.00 in0.0 mm 0.00 in0.0 mm
12:01 PM 50.7°F10.4°C 44.4°F6.9°C 79% 0.2 mph SE0.3 kmh SE 1.8 mph2.9 kmh 30.07 in1018.3 mb 0.00 in0.0 mm 0.00 in0.0 mm 0.00 in0.0 mm
11:55 AM 50.2°F10.1°C 43.9°F6.6°C 79% Calm Calm -- 30.07 in1018.3 mb 0.00 in0.0 mm 0.00 in0.0 mm 0.00 in0.0 mm
11:51 AM 49.8°F9.9°C 43.2°F6.2°C 78% Calm Calm -- 30.07 in1018.3 mb 0.00 in0.0 mm 0.00 in0.0 mm 0.00 in0.0 mm
11:45 AM 49.6°F9.8°C 43.0°F6.1°C 78% 1.6 mph W2.6 kmh W 2.7 mph4.3 kmh 30.08 in1018.6 mb 0.00 in0.0 mm 0.00 in0.0 mm 0.00 in0.0 mm
11:41 AM 49.3°F9.6°C 43.0°F6.1°C 79% Calm Calm -- 30.08 in1018.6 mb 0.00 in0.0 mm 0.00 in0.0 mm 0.00 in0.0 mm
11:35 AM 48.6°F9.2°C 43.7°F6.5°C 83% 0.2 mph NW0.3 kmh NW 1.8 mph2.9 kmh 30.08 in1018.6 mb 0.00 in0.0 mm 0.00 in0.0 mm 0.00 in0.0 mm
11:31 AM 48.0°F8.9°C 42.8°F6.0°C 82% Calm Calm -- 30.09 in1019.0 mb 0.00 in0.0 mm 0.00 in0.0 mm 0.00 in0.0 mm
11:25 AM 47.5°F8.6°C 42.6°F5.9°C 83% 0.2 mph ENE0.3 kmh ENE 1.3 mph2.1 kmh 30.10 in1019.3 mb 0.00 in0.0 mm 0.00 in0.0 mm 0.00 in0.0 mm
11:21 AM 47.1°F8.4°C 43.5°F6.4°C 87% Calm Calm -- 30.09 in1019.0 mb 0.00 in0.0 mm 0.00 in0.0 mm 0.00 in0.0 mm
11:17 AM 46.9°F8.3°C 42.4°F5.8°C 84% Calm Calm -- 30.09 in1019.0 mb 0.00 in0.0 mm 0.00 in0.0 mm 0.00 in0.0 mm
11:11 AM 46.8°F8.2°C 43.2°F6.2°C 87% 0.7 mph SW1.1 kmh SW 1.6 mph2.6 kmh 30.09 in1019.0 mb 0.00 in0.0 mm 0.00 in0.0 mm 0.00 in0.0 mm
11:05 AM 46.4°F8.0°C 42.1°F5.6°C 85% Calm Calm -- 30.10 in1019.3 mb 0.00 in0.0 mm 0.00 in0.0 mm 0.00 in0.0 mm
11:01 AM 46.0°F7.8°C 43.0°F6.1°C 89% Calm Calm -- 30.10 in1019.3 mb 0.00 in0.0 mm 0.00 in0.0 mm 0.00 in0.0 mm
10:55 AM 46.0°F7.8°C 41.7°F5.4°C 85% 0.9 mph W1.4 kmh W 2.0 mph3.2 kmh 30.10 in1019.3 mb 0.00 in0.0 mm 0.00 in0.0 mm 0.00 in0.0 mm
10:51 AM 45.9°F7.7°C 42.3°F5.7°C 87% Calm Calm -- 30.10 in1019.3 mb 0.00 in0.0 mm 0.00 in0.0 mm 0.00 in0.0 mm
10:45 AM 45.5°F7.5°C 42.1°F5.6°C 88% Calm Calm -- 30.10 in1019.3 mb 0.00 in0.0 mm 0.00 in0.0 mm 0.00 in0.0 mm
10:40 AM 45.0°F7.2°C 41.9°F5.5°C 89% 0.7 mph NE1.1 kmh NE 2.2 mph3.5 kmh 30.10 in1019.3 mb 0.00 in0.0 mm 0.00 in0.0 mm 0.00 in0.0 mm
10:35 AM 44.4°F6.9°C 41.7°F5.4°C 90% 0.7 mph W1.1 kmh W 2.2 mph3.5 kmh 30.10 in1019.3 mb 0.00 in0.0 mm 0.00 in0.0 mm 0.00 in0.0 mm
10:30 AM 44.1°F6.7°C 41.0°F5.0°C 89% 0.2 mph NW0.3 kmh NW 1.6 mph2.6 kmh 30.10 in1019.3 mb 0.00 in0.0 mm 0.00 in0.0 mm 0.00 in0.0 mm
10:25 AM 43.3°F6.3°C 40.6°F4.8°C 90% Calm Calm 1.8 mph2.9 kmh 30.10 in1019.3 mb 0.00 in0.0 mm 0.00 in0.0 mm 0.00 in0.0 mm
10:20 AM 43.0°F6.1°C 40.8°F4.9°C 92% Calm Calm -- 30.10 in1019.3 mb 0.00 in0.0 mm 0.00 in0.0 mm 0.00 in0.0 mm
10:15 AM 42.8°F6.0°C 41.2°F5.1°C 94% 2.2 mph SSW3.5 kmh SSW 3.6 mph5.8 kmh 30.11 in1019.6 mb 0.00 in0.0 mm 0.00 in0.0 mm 0.00 in0.0 mm
10:11 AM 42.4°F5.8°C 41.7°F5.4°C 97% Calm Calm -- 30.11 in1019.6 mb 0.00 in0.0 mm 0.00 in0.0 mm 0.00 in0.0 mm
10:05 AM 41.5°F5.3°C 41.4°F5.2°C 99% Calm Calm -- 30.10 in1019.3 mb 0.00 in0.0 mm 0.00 in0.0 mm 0.00 in0.0 mm
10:00 AM 40.8°F4.9°C 40.6°F4.8°C 99% Calm Calm -- 30.10 in1019.3 mb 0.00 in0.0 mm 0.00 in0.0 mm 0.00 in0.0 mm
09:55 AM 40.1°F4.5°C 39.9°F4.4°C 99% Calm Calm -- 30.11 in1019.6 mb 0.00 in0.0 mm 0.00 in0.0 mm 0.00 in0.0 mm
09:50 AM 40.1°F4.5°C 39.9°F4.4°C 99% Calm Calm -- 30.10 in1019.3 mb 0.00 in0.0 mm 0.00 in0.0 mm 0.00 in0.0 mm
09:45 AM 39.6°F4.2°C 39.4°F4.1°C 99% Calm Calm -- 30.11 in1019.6 mb 0.00 in0.0 mm 0.00 in0.0 mm 0.00 in0.0 mm
09:40 AM 38.8°F3.8°C 38.7°F3.7°C 99% Calm Calm -- 30.10 in1019.3 mb 0.00 in0.0 mm 0.00 in0.0 mm 0.00 in0.0 mm
09:36 AM 38.7°F3.7°C 38.5°F3.6°C 99% Calm Calm -- 30.10 in1019.3 mb 0.00 in0.0 mm 0.00 in0.0 mm 0.00 in0.0 mm
09:30 AM 38.3°F3.5°C 38.1°F3.4°C 99% Calm Calm -- 30.10 in1019.3 mb 0.00 in0.0 mm 0.00 in0.0 mm 0.00 in0.0 mm
09:25 AM 37.8°F3.2°C 37.6°F3.1°C 99% Calm Calm -- 30.10 in1019.3 mb 0.00 in0.0 mm 0.00 in0.0 mm 0.00 in0.0 mm
09:20 AM 37.4°F3.0°C 37.2°F2.9°C 99% Calm Calm -- 30.10 in1019.3 mb 0.00 in0.0 mm 0.00 in0.0 mm 0.00 in0.0 mm
09:16 AM 37.0°F2.8°C 36.9°F2.7°C 99% Calm Calm -- 30.10 in1019.3 mb 0.00 in0.0 mm 0.00 in0.0 mm 0.00 in0.0 mm
09:11 AM 36.9°F2.7°C 36.7°F2.6°C 99% Calm Calm -- 30.10 in1019.3 mb 0.00 in0.0 mm 0.00 in0.0 mm 0.00 in0.0 mm
09:05 AM 36.1°F2.3°C 36.0°F2.2°C 99% Calm Calm -- 30.10 in1019.3 mb 0.00 in0.0 mm 0.00 in0.0 mm 0.00 in0.0 mm
09:00 AM 35.8°F2.1°C 35.6°F2.0°C 99% Calm Calm -- 30.10 in1019.3 mb 0.00 in0.0 mm 0.00 in0.0 mm 0.00 in0.0 mm
08:55 AM 35.2°F1.8°C 35.1°F1.7°C 99% Calm Calm -- 30.09 in1019.0 mb 0.00 in0.0 mm 0.00 in0.0 mm 0.00 in0.0 mm
08:50 AM 35.1°F1.7°C 34.9°F1.6°C 99% 0.2 mph S0.3 kmh S 1.3 mph2.1 kmh 30.09 in1019.0 mb 0.00 in0.0 mm 0.00 in0.0 mm 0.00 in0.0 mm
08:45 AM 34.7°F1.5°C 34.5°F1.4°C 99% 0.2 mph WNW0.3 kmh WNW 1.1 mph1.8 kmh 30.09 in1019.0 mb 0.00 in0.0 mm 0.00 in0.0 mm 0.00 in0.0 mm
08:40 AM 34.3°F1.3°C 33.8°F1.0°C 98% Calm Calm -- 30.09 in1019.0 mb 0.00 in0.0 mm 0.00 in0.0 mm 0.00 in0.0 mm
08:36 AM 34.2°F1.2°C 33.6°F0.9°C 98% Calm Calm -- 30.08 in1018.6 mb 0.00 in0.0 mm 0.00 in0.0 mm 0.00 in0.0 mm
08:30 AM 34.0°F1.1°C 33.3°F0.7°C 97% Calm Calm -- 30.08 in1018.6 mb 0.00 in0.0 mm 0.00 in0.0 mm 0.00 in0.0 mm
08:26 AM 33.6°F0.9°C 32.9°F0.5°C 97% Calm Calm -- 30.08 in1018.6 mb 0.00 in0.0 mm 0.00 in0.0 mm 0.00 in0.0 mm
08:20 AM 33.4°F0.8°C 32.7°F0.4°C 97% 0.2 mph NW0.3 kmh NW 1.1 mph1.8 kmh 30.08 in1018.6 mb 0.00 in0.0 mm 0.00 in0.0 mm 0.00 in0.0 mm
08:15 AM 33.4°F0.8°C 32.7°F0.4°C 97% Calm Calm 1.1 mph1.8 kmh 30.07 in1018.3 mb 0.00 in0.0 mm 0.00 in0.0 mm 0.00 in0.0 mm
08:11 AM 33.6°F0.9°C 32.9°F0.5°C 97% Calm Calm -- 30.07 in1018.3 mb 0.00 in0.0 mm 0.00 in0.0 mm 0.00 in0.0 mm
08:06 AM 33.3°F0.7°C 32.5°F0.3°C 97% Calm Calm -- 30.07 in1018.3 mb 0.00 in0.0 mm 0.00 in0.0 mm 0.00 in0.0 mm
08:01 AM 33.3°F0.7°C 32.5°F0.3°C 97% Calm Calm -- 30.07 in1018.3 mb 0.00 in0.0 mm 0.00 in0.0 mm 0.00 in0.0 mm
07:55 AM 33.1°F0.6°C 32.4°F0.2°C 97% Calm Calm -- 30.07 in1018.3 mb 0.00 in0.0 mm 0.00 in0.0 mm 0.00 in0.0 mm
07:51 AM 32.9°F0.5°C 32.2°F0.1°C 97% Calm Calm -- 30.08 in1018.6 mb 0.00 in0.0 mm 0.00 in0.0 mm 0.00 in0.0 mm
07:45 AM 32.9°F0.5°C 31.8°F-0.1°C 96% Calm Calm -- 30.07 in1018.3 mb 0.00 in0.0 mm 0.00 in0.0 mm 0.00 in0.0 mm
07:41 AM 32.7°F0.4°C 31.6°F-0.2°C 96% Calm Calm -- 30.07 in1018.3 mb 0.00 in0.0 mm 0.00 in0.0 mm 0.00 in0.0 mm
07:35 AM 32.7°F0.4°C 31.6°F-0.2°C 96% 0.2 mph NW0.3 kmh NW 1.1 mph1.8 kmh 30.06 in1017.9 mb 0.00 in0.0 mm 0.00 in0.0 mm 0.00 in0.0 mm
07:31 AM 32.7°F0.4°C 31.6°F-0.2°C 96% Calm Calm -- 30.06 in1017.9 mb 0.00 in0.0 mm 0.00 in0.0 mm 0.00 in0.0 mm
07:25 AM 32.5°F0.3°C 31.5°F-0.3°C 96% 0.2 mph WNW0.3 kmh WNW 1.1 mph1.8 kmh 30.06 in1017.9 mb 0.00 in0.0 mm 0.00 in0.0 mm 0.00 in0.0 mm
07:21 AM 32.7°F0.4°C 31.6°F-0.2°C 96% Calm Calm -- 30.06 in1017.9 mb 0.00 in0.0 mm 0.00 in0.0 mm 0.00 in0.0 mm
07:15 AM 32.5°F0.3°C 31.5°F-0.3°C 96% 0.2 mph NW0.3 kmh NW 1.1 mph1.8 kmh 30.06 in1017.9 mb 0.00 in0.0 mm 0.00 in0.0 mm 0.00 in0.0 mm
07:11 AM 32.7°F0.4°C 31.6°F-0.2°C 96% Calm Calm -- 30.06 in1017.9 mb 0.00 in0.0 mm 0.00 in0.0 mm 0.00 in0.0 mm
07:06 AM 32.5°F0.3°C 31.5°F-0.3°C 96% Calm Calm -- 30.06 in1017.9 mb 0.00 in0.0 mm 0.00 in0.0 mm 0.00 in0.0 mm
07:01 AM 32.4°F0.2°C 31.3°F-0.4°C 96% Calm Calm -- 30.06 in1017.9 mb 0.00 in0.0 mm 0.00 in0.0 mm 0.00 in0.0 mm
06:55 AM 32.7°F0.4°C 31.6°F-0.2°C 96% Calm Calm -- 30.07 in1018.3 mb 0.00 in0.0 mm 0.00 in0.0 mm 0.00 in0.0 mm
06:51 AM 32.5°F0.3°C 31.5°F-0.3°C 96% Calm Calm -- 30.07 in1018.3 mb 0.00 in0.0 mm 0.00 in0.0 mm 0.00 in0.0 mm
06:45 AM 32.9°F0.5°C 31.8°F-0.1°C 96% 0.2 mph NW0.3 kmh NW 1.1 mph1.8 kmh 30.07 in1018.3 mb 0.00 in0.0 mm 0.00 in0.0 mm 0.00 in0.0 mm
06:41 AM 32.7°F0.4°C 31.1°F-0.5°C 94% Calm Calm -- 30.07 in1018.3 mb 0.00 in0.0 mm 0.00 in0.0 mm 0.00 in0.0 mm
06:35 AM 32.7°F0.4°C 31.1°F-0.5°C 94% Calm Calm -- 30.07 in1018.3 mb 0.00 in0.0 mm 0.00 in0.0 mm 0.00 in0.0 mm
06:31 AM 32.9°F0.5°C 31.3°F-0.4°C 94% 1.1 mph NW1.8 kmh NW 1.3 mph2.1 kmh 30.07 in1018.3 mb 0.00 in0.0 mm 0.00 in0.0 mm 0.00 in0.0 mm
06:25 AM 32.7°F0.4°C 30.9°F-0.6°C 93% Calm Calm -- 30.07 in1018.3 mb 0.00 in0.0 mm 0.00 in0.0 mm 0.00 in0.0 mm
06:21 AM 33.1°F0.6°C 31.5°F-0.3°C 94% Calm Calm -- 30.07 in1018.3 mb 0.00 in0.0 mm 0.00 in0.0 mm 0.00 in0.0 mm
06:15 AM 32.9°F0.5°C 31.1°F-0.5°C 93% Calm Calm -- 30.07 in1018.3 mb 0.00 in0.0 mm 0.00 in0.0 mm 0.00 in0.0 mm
06:11 AM 32.9°F0.5°C 31.1°F-0.5°C 93% Calm Calm -- 30.07 in1018.3 mb 0.00 in0.0 mm 0.00 in0.0 mm 0.00 in0.0 mm
06:05 AM 33.1°F0.6°C 31.3°F-0.4°C 93% Calm Calm -- 30.07 in1018.3 mb 0.00 in0.0 mm 0.00 in0.0 mm 0.00 in0.0 mm
06:01 AM 32.9°F0.5°C 31.1°F-0.5°C 93% Calm Calm -- 30.07 in1018.3 mb 0.00 in0.0 mm 0.00 in0.0 mm 0.00 in0.0 mm
05:55 AM 33.1°F0.6°C 31.3°F-0.4°C 93% Calm Calm -- 30.07 in1018.3 mb 0.00 in0.0 mm 0.00 in0.0 mm 0.00 in0.0 mm
05:51 AM 33.1°F0.6°C 31.3°F-0.4°C 93% Calm Calm -- 30.07 in1018.3 mb 0.00 in0.0 mm 0.00 in0.0 mm 0.00 in0.0 mm
05:45 AM 33.4°F0.8°C 31.6°F-0.2°C 93% Calm Calm -- 30.07 in1018.3 mb 0.00 in0.0 mm 0.00 in0.0 mm 0.00 in0.0 mm
05:41 AM 33.3°F0.7°C 31.5°F-0.3°C 93% Calm Calm -- 30.07 in1018.3 mb 0.00 in0.0 mm 0.00 in0.0 mm 0.00 in0.0 mm
05:35 AM 33.4°F0.8°C 31.6°F-0.2°C 93% Calm Calm -- 30.06 in1017.9 mb 0.00 in0.0 mm 0.00 in0.0 mm 0.00 in0.0 mm
05:31 AM 33.4°F0.8°C 31.8°F-0.1°C 94% Calm Calm -- 30.06 in1017.9 mb 0.00 in0.0 mm 0.00 in0.0 mm 0.00 in0.0 mm
05:25 AM 33.6°F0.9°C 32.0°F0.0°C 94% 0.2 mph WNW0.3 kmh WNW 1.6 mph2.6 kmh 30.06 in1017.9 mb 0.00 in0.0 mm 0.00 in0.0 mm 0.00 in0.0 mm
05:21 AM 33.6°F0.9°C 32.0°F0.0°C 94% Calm Calm -- 30.06 in1017.9 mb 0.00 in0.0 mm 0.00 in0.0 mm 0.00 in0.0 mm
05:15 AM 33.6°F0.9°C 31.8°F-0.1°C 93% Calm Calm -- 30.06 in1017.9 mb 0.00 in0.0 mm 0.00 in0.0 mm 0.00 in0.0 mm
05:11 AM 33.4°F0.8°C 31.6°F-0.2°C 93% Calm Calm -- 30.06 in1017.9 mb 0.00 in0.0 mm 0.00 in0.0 mm 0.00 in0.0 mm
05:05 AM 33.4°F0.8°C 31.6°F-0.2°C 93% Calm Calm -- 30.06 in1017.9 mb 0.00 in0.0 mm 0.00 in0.0 mm 0.00 in0.0 mm
05:01 AM 33.4°F0.8°C 31.6°F-0.2°C 93% Calm Calm -- 30.06 in1017.9 mb 0.00 in0.0 mm 0.00 in0.0 mm 0.00 in0.0 mm
04:55 AM 33.8°F1.0°C 32.0°F0.0°C 93% Calm Calm -- 30.06 in1017.9 mb 0.00 in0.0 mm 0.00 in0.0 mm 0.00 in0.0 mm
04:51 AM 33.6°F0.9°C 31.8°F-0.1°C 93% Calm Calm -- 30.06 in1017.9 mb 0.00 in0.0 mm 0.00 in0.0 mm 0.00 in0.0 mm
04:45 AM 33.8°F1.0°C 32.0°F0.0°C 93% Calm Calm -- 30.06 in1017.9 mb 0.00 in0.0 mm 0.00 in0.0 mm 0.00 in0.0 mm
04:41 AM 34.0°F1.1°C 32.2°F0.1°C 93% Calm Calm -- 30.06 in1017.9 mb 0.00 in0.0 mm 0.00 in0.0 mm 0.00 in0.0 mm
04:35 AM 34.0°F1.1°C 32.2°F0.1°C 93% 0.2 mph WNW0.3 kmh WNW 1.1 mph1.8 kmh 30.06 in1017.9 mb 0.00 in0.0 mm 0.00 in0.0 mm 0.00 in0.0 mm
04:31 AM 34.0°F1.1°C 32.2°F0.1°C 93% Calm Calm -- 30.06 in1017.9 mb 0.00 in0.0 mm 0.00 in0.0 mm 0.00 in0.0 mm
04:25 AM 34.3°F1.3°C 32.5°F0.3°C 93% Calm Calm -- 30.05 in1017.6 mb 0.00 in0.0 mm 0.00 in0.0 mm 0.00 in0.0 mm
04:21 AM 34.0°F1.1°C 32.2°F0.1°C 93% Calm Calm -- 30.05 in1017.6 mb 0.00 in0.0 mm 0.00 in0.0 mm 0.00 in0.0 mm
04:15 AM 34.2°F1.2°C 32.0°F0.0°C 92% Calm Calm -- 30.06 in1017.9 mb 0.00 in0.0 mm 0.00 in0.0 mm 0.00 in0.0 mm
04:11 AM 34.3°F1.3°C 32.5°F0.3°C 93% Calm Calm -- 30.06 in1017.9 mb 0.00 in0.0 mm 0.00 in0.0 mm 0.00 in0.0 mm
04:05 AM 34.3°F1.3°C 32.2°F0.1°C 92% 0.2 mph NW0.3 kmh NW 1.1 mph1.8 kmh 30.06 in1017.9 mb 0.00 in0.0 mm 0.00 in0.0 mm 0.00 in0.0 mm
04:01 AM 34.3°F1.3°C 32.2°F0.1°C 92% Calm Calm -- 30.06 in1017.9 mb 0.00 in0.0 mm 0.00 in0.0 mm 0.00 in0.0 mm
03:55 AM 34.5°F1.4°C 32.7°F0.4°C 93% Calm Calm -- 30.06 in1017.9 mb 0.00 in0.0 mm 0.00 in0.0 mm 0.00 in0.0 mm
03:51 AM 34.5°F1.4°C 32.7°F0.4°C 93% Calm Calm -- 30.06 in1017.9 mb 0.00 in0.0 mm 0.00 in0.0 mm 0.00 in0.0 mm
03:45 AM 34.7°F1.5°C 32.9°F0.5°C 93% Calm Calm -- 30.06 in1017.9 mb 0.00 in0.0 mm 0.00 in0.0 mm 0.00 in0.0 mm
03:41 AM 34.7°F1.5°C 32.9°F0.5°C 93% Calm Calm -- 30.06 in1017.9 mb 0.00 in0.0 mm 0.00 in0.0 mm 0.00 in0.0 mm
03:35 AM 34.7°F1.5°C 32.9°F0.5°C 93% Calm Calm -- 30.06 in1017.9 mb 0.00 in0.0 mm 0.00 in0.0 mm 0.00 in0.0 mm
03:31 AM 34.9°F1.6°C 33.1°F0.6°C 93% Calm Calm -- 30.06 in1017.9 mb 0.00 in0.0 mm 0.00 in0.0 mm 0.00 in0.0 mm
03:25 AM 35.1°F1.7°C 33.3°F0.7°C 93% Calm Calm -- 30.07 in1018.3 mb 0.00 in0.0 mm 0.00 in0.0 mm 0.00 in0.0 mm
03:21 AM 35.1°F1.7°C 33.3°F0.7°C 93% Calm Calm -- 30.07 in1018.3 mb 0.00 in0.0 mm 0.00 in0.0 mm 0.00 in0.0 mm
03:15 AM 35.2°F1.8°C 33.1°F0.6°C 92% Calm Calm -- 30.06 in1017.9 mb 0.00 in0.0 mm 0.00 in0.0 mm 0.00 in0.0 mm
03:11 AM 34.7°F1.5°C 32.5°F0.3°C 92% Calm Calm -- 30.06 in1017.9 mb 0.00 in0.0 mm 0.00 in0.0 mm 0.00 in0.0 mm
03:05 AM 35.2°F1.8°C 33.4°F0.8°C 93% Calm Calm -- 30.06 in1017.9 mb 0.00 in0.0 mm 0.00 in0.0 mm 0.00 in0.0 mm
03:01 AM 35.2°F1.8°C 33.4°F0.8°C 93% Calm Calm -- 30.06 in1017.9 mb 0.00 in0.0 mm 0.00 in0.0 mm 0.00 in0.0 mm
02:55 AM 35.2°F1.8°C 33.1°F0.6°C 92% 0.4 mph NW0.6 kmh NW 1.1 mph1.8 kmh 30.06 in1017.9 mb 0.00 in0.0 mm 0.00 in0.0 mm 0.00 in0.0 mm
02:51 AM 35.6°F2.0°C 33.8°F1.0°C 93% Calm Calm 0.9 mph1.4 kmh 30.06 in1017.9 mb 0.00 in0.0 mm 0.00 in0.0 mm 0.00 in0.0 mm
02:45 AM 35.6°F2.0°C 33.8°F1.0°C 93% Calm Calm -- 30.06 in1017.9 mb 0.00 in0.0 mm 0.00 in0.0 mm 0.00 in0.0 mm
02:41 AM 35.6°F2.0°C 33.4°F0.8°C 92% Calm Calm -- 30.06 in1017.9 mb 0.00 in0.0 mm 0.00 in0.0 mm 0.00 in0.0 mm
02:35 AM 35.8°F2.1°C 33.6°F0.9°C 92% Calm Calm 1.3 mph2.1 kmh 30.06 in1017.9 mb 0.00 in0.0 mm 0.00 in0.0 mm 0.00 in0.0 mm
02:31 AM 35.8°F2.1°C 33.6°F0.9°C 92% Calm Calm -- 30.06 in1017.9 mb 0.00 in0.0 mm 0.00 in0.0 mm 0.00 in0.0 mm
02:25 AM 35.8°F2.1°C 33.6°F0.9°C 92% Calm Calm -- 30.06 in1017.9 mb 0.00 in0.0 mm 0.00 in0.0 mm 0.00 in0.0 mm
02:21 AM 36.0°F2.2°C 33.8°F1.0°C 92% 1.6 mph WNW2.6 kmh WNW 2.0 mph3.2 kmh 30.06 in1017.9 mb 0.00 in0.0 mm 0.00 in0.0 mm 0.00 in0.0 mm
02:15 AM 36.1°F2.3°C 34.0°F1.1°C 92% Calm Calm -- 30.06 in1017.9 mb 0.00 in0.0 mm 0.00 in0.0 mm 0.00 in0.0 mm
02:11 AM 36.0°F2.2°C 33.8°F1.0°C 92% Calm Calm -- 30.06 in1017.9 mb 0.00 in0.0 mm 0.00 in0.0 mm 0.00 in0.0 mm
02:05 AM 36.1°F2.3°C 34.0°F1.1°C 92% Calm Calm -- 30.06 in1017.9 mb 0.00 in0.0 mm 0.00 in0.0 mm 0.00 in0.0 mm
02:01 AM 36.1°F2.3°C 34.0°F1.1°C 92% Calm Calm -- 30.05 in1017.6 mb 0.00 in0.0 mm 0.00 in0.0 mm 0.00 in0.0 mm
01:55 AM 36.5°F2.5°C 34.3°F1.3°C 92% Calm Calm -- 30.05 in1017.6 mb 0.00 in0.0 mm 0.00 in0.0 mm 0.00 in0.0 mm
01:51 AM 36.5°F2.5°C 34.3°F1.3°C 92% Calm Calm -- 30.06 in1017.9 mb 0.00 in0.0 mm 0.00 in0.0 mm 0.00 in0.0 mm
01:45 AM 36.7°F2.6°C 34.5°F1.4°C 92% Calm Calm -- 30.05 in1017.6 mb 0.00 in0.0 mm 0.00 in0.0 mm 0.00 in0.0 mm
01:41 AM 36.7°F2.6°C 34.5°F1.4°C 92% Calm Calm -- 30.05 in1017.6 mb 0.00 in0.0 mm 0.00 in0.0 mm 0.00 in0.0 mm
01:35 AM 36.7°F2.6°C 34.5°F1.4°C 92% Calm Calm -- 30.05 in1017.6 mb 0.00 in0.0 mm 0.00 in0.0 mm 0.00 in0.0 mm
01:31 AM 36.9°F2.7°C 34.7°F1.5°C 92% Calm Calm -- 30.05 in1017.6 mb 0.00 in0.0 mm 0.00 in0.0 mm 0.00 in0.0 mm
01:25 AM 37.0°F2.8°C 34.9°F1.6°C 92% Calm Calm -- 30.05 in1017.6 mb 0.00 in0.0 mm 0.00 in0.0 mm 0.00 in0.0 mm
01:21 AM 37.0°F2.8°C 34.9°F1.6°C 92% 0.2 mph NW0.3 kmh NW 1.1 mph1.8 kmh 30.05 in1017.6 mb 0.00 in0.0 mm 0.00 in0.0 mm 0.00 in0.0 mm
01:15 AM 37.0°F2.8°C 34.9°F1.6°C 92% Calm Calm -- 30.05 in1017.6 mb 0.00 in0.0 mm 0.00 in0.0 mm 0.00 in0.0 mm
01:11 AM 37.2°F2.9°C 35.1°F1.7°C 92% Calm Calm -- 30.05 in1017.6 mb 0.00 in0.0 mm 0.00 in0.0 mm 0.00 in0.0 mm
01:05 AM 37.4°F3.0°C 35.2°F1.8°C 92% Calm Calm -- 30.05 in1017.6 mb 0.00 in0.0 mm 0.00 in0.0 mm 0.00 in0.0 mm
01:01 AM 37.4°F3.0°C 35.2°F1.8°C 92% 1.3 mph WNW2.1 kmh WNW 2.0 mph3.2 kmh 30.05 in1017.6 mb 0.00 in0.0 mm 0.00 in0.0 mm 0.00 in0.0 mm
12:55 AM 37.4°F3.0°C 35.2°F1.8°C 92% Calm Calm -- 30.05 in1017.6 mb 0.00 in0.0 mm 0.00 in0.0 mm 0.00 in0.0 mm
12:51 AM 37.6°F3.1°C 35.4°F1.9°C 92% 1.8 mph WNW2.9 kmh WNW 2.5 mph4.0 kmh 30.05 in1017.6 mb 0.00 in0.0 mm 0.00 in0.0 mm 0.00 in0.0 mm
12:45 AM 37.8°F3.2°C 35.1°F1.7°C 90% 0.2 mph WNW0.3 kmh WNW 1.6 mph2.6 kmh 30.04 in1017.3 mb 0.00 in0.0 mm 0.00 in0.0 mm 0.00 in0.0 mm
12:41 AM 37.8°F3.2°C 35.1°F1.7°C 90% Calm Calm -- 30.04 in1017.3 mb 0.00 in0.0 mm 0.00 in0.0 mm 0.00 in0.0 mm
12:35 AM 38.3°F3.5°C 36.1°F2.3°C 92% Calm Calm -- 30.04 in1017.3 mb 0.00 in0.0 mm 0.00 in0.0 mm 0.00 in0.0 mm
12:31 AM 38.3°F3.5°C 36.1°F2.3°C 92% Calm Calm -- 30.04 in1017.3 mb 0.00 in0.0 mm 0.00 in0.0 mm 0.00 in0.0 mm
12:25 AM 38.1°F3.4°C 36.0°F2.2°C 92% Calm Calm -- 30.05 in1017.6 mb 0.00 in0.0 mm 0.00 in0.0 mm 0.00 in0.0 mm
12:21 AM 38.3°F3.5°C 36.1°F2.3°C 92% Calm Calm -- 30.05 in1017.6 mb 0.00 in0.0 mm 0.00 in0.0 mm 0.00 in0.0 mm
12:15 AM 38.3°F3.5°C 36.1°F2.3°C 92% Calm Calm -- 30.05 in1017.6 mb 0.00 in0.0 mm 0.00 in0.0 mm 0.00 in0.0 mm
12:11 AM 38.5°F3.6°C 36.3°F2.4°C 92% Calm Calm -- 30.05 in1017.6 mb 0.00 in0.0 mm 0.00 in0.0 mm 0.00 in0.0 mm
12:05 AM 38.5°F3.6°C 36.3°F2.4°C 92% Calm Calm -- 30.05 in1017.6 mb 0.00 in0.0 mm 0.00 in0.0 mm 0.00 in0.0 mm
12:01 AM 38.5°F3.6°C 36.3°F2.4°C 92% Calm Calm -- 30.05 in1017.6 mb 0.00 in0.0 mm 0.00 in0.0 mm 0.00 in0.0 mm